createdAt,value
2024-03-18T00:00:48.404Z,95149.00
2024-03-18T00:01:48.481Z,95148.00
2024-03-18T00:02:48.582Z,95151.00
2024-03-18T00:03:48.637Z,95151.00
2024-03-18T00:04:48.773Z,95150.00
2024-03-18T00:05:48.760Z,95153.00
2024-03-18T00:06:48.878Z,95150.00
2024-03-18T00:07:48.931Z,95150.00
2024-03-18T00:08:49.033Z,95146.00
2024-03-18T00:09:49.083Z,95143.00
2024-03-18T00:10:49.129Z,95143.00
2024-03-18T00:11:49.208Z,95142.00
2024-03-18T00:12:49.320Z,95142.00
2024-03-18T00:13:49.381Z,95140.00
2024-03-18T00:14:49.487Z,95141.00
2024-03-18T00:15:49.503Z,95139.00
2024-03-18T00:16:49.569Z,95139.00
2024-03-18T00:17:49.631Z,95138.00
2024-03-18T00:18:49.717Z,95140.00
2024-03-18T00:19:49.818Z,95140.00
2024-03-18T00:20:49.859Z,95141.00
2024-03-18T00:21:49.942Z,95138.00
2024-03-18T00:22:50.044Z,95138.00
2024-03-18T00:23:50.981Z,95137.00
2024-03-18T00:24:50.196Z,95138.00
2024-03-18T00:25:50.256Z,95136.00
2024-03-18T00:26:50.338Z,95137.00
2024-03-18T00:27:50.393Z,95135.00
2024-03-18T00:28:50.463Z,95133.00
2024-03-18T00:29:50.558Z,95134.00
2024-03-18T00:30:50.630Z,95133.00
2024-03-18T00:31:50.678Z,95133.00
2024-03-18T00:32:50.783Z,95132.00
2024-03-18T00:33:50.837Z,95130.00
2024-03-18T00:34:50.967Z,95129.00
2024-03-18T00:35:51.809Z,95130.00
2024-03-18T00:36:51.065Z,95131.00
2024-03-18T00:37:51.824Z,95128.00
2024-03-18T00:38:51.191Z,95127.00
2024-03-18T00:39:51.324Z,95127.00
2024-03-18T00:40:51.388Z,95128.00
2024-03-18T00:41:51.403Z,95128.00
2024-03-18T00:42:51.536Z,95130.00
2024-03-18T00:43:51.593Z,95130.00
2024-03-18T00:44:51.740Z,95127.00
2024-03-18T00:45:51.715Z,95127.00
2024-03-18T00:46:51.804Z,95127.00
2024-03-18T00:47:51.848Z,95125.00
2024-03-18T00:48:51.926Z,95123.00
2024-03-18T00:49:52.046Z,95122.00
2024-03-18T00:50:52.128Z,95122.00
2024-03-18T00:51:52.189Z,95119.00
2024-03-18T00:52:52.241Z,95117.00
2024-03-18T00:53:52.311Z,95118.00
2024-03-18T00:54:52.406Z,95116.00
2024-03-18T00:55:52.499Z,95113.00
2024-03-18T00:56:52.534Z,95113.00
2024-03-18T00:57:52.614Z,95110.00
2024-03-18T00:58:52.717Z,95108.00
2024-03-18T00:59:52.799Z,95106.00
2024-03-18T01:00:52.860Z,95104.00
2024-03-18T01:01:52.930Z,95104.00
2024-03-18T01:02:52.982Z,95106.00
2024-03-18T01:03:53.095Z,95105.00
2024-03-18T01:04:53.155Z,95104.00
2024-03-18T01:05:53.204Z,95104.00
2024-03-18T01:06:53.274Z,95103.00
2024-03-18T01:07:53.420Z,95101.00
2024-03-18T01:08:53.515Z,95102.00
2024-03-18T01:09:53.576Z,95103.00
2024-03-18T01:10:53.571Z,95103.00
2024-03-18T01:11:53.630Z,95102.00
2024-03-18T01:12:53.785Z,95100.00
2024-03-18T01:13:53.775Z,95101.00
2024-03-18T01:14:53.885Z,95101.00
2024-03-18T01:15:53.933Z,95102.00
2024-03-18T01:16:54.090Z,95100.00
2024-03-18T01:17:54.112Z,95098.00
2024-03-18T01:18:54.168Z,95099.00
2024-03-18T01:19:54.261Z,95099.00
2024-03-18T01:20:54.273Z,95100.00
2024-03-18T01:21:54.338Z,95100.00
2024-03-18T01:22:54.451Z,95099.00
2024-03-18T01:23:54.505Z,95097.00
2024-03-18T01:24:54.612Z,95100.00
2024-03-18T01:25:54.630Z,95098.00
2024-03-18T01:26:54.702Z,95098.00
2024-03-18T01:27:54.797Z,95099.00
2024-03-18T01:28:54.877Z,95098.00
2024-03-18T01:29:54.949Z,95095.00
2024-03-18T01:30:55.014Z,95097.00
2024-03-18T01:31:55.075Z,95094.00
2024-03-18T01:32:55.128Z,95094.00
2024-03-18T01:33:55.250Z,95093.00
2024-03-18T01:34:55.285Z,95094.00
2024-03-18T01:35:55.376Z,95093.00
2024-03-18T01:36:55.468Z,95092.00
2024-03-18T01:37:55.519Z,95090.00
2024-03-18T01:38:55.577Z,95090.00
2024-03-18T01:39:55.691Z,95090.00
2024-03-18T01:40:55.766Z,95089.00
2024-03-18T01:41:55.803Z,95088.00
2024-03-18T01:42:55.909Z,95086.00
2024-03-18T01:43:55.955Z,95087.00
2024-03-18T01:44:56.074Z,95086.00
2024-03-18T01:45:56.135Z,95085.00
2024-03-18T01:46:56.185Z,95083.00
2024-03-18T01:47:56.258Z,95082.00
2024-03-18T01:48:56.361Z,95081.00
2024-03-18T01:49:56.434Z,95078.00
2024-03-18T01:50:56.480Z,95079.00
2024-03-18T01:51:56.595Z,95082.00
2024-03-18T01:52:56.642Z,95080.00
2024-03-18T01:53:56.701Z,95076.00
2024-03-18T01:54:56.819Z,95074.00
2024-03-18T01:55:56.851Z,95075.00
2024-03-18T01:56:56.979Z,95072.00
2024-03-18T01:57:57.044Z,95072.00
2024-03-18T01:58:57.099Z,95073.00
2024-03-18T01:59:57.208Z,95072.00
2024-03-18T02:00:57.214Z,95071.00
2024-03-18T02:01:57.318Z,95069.00
2024-03-18T02:02:57.379Z,95066.00
2024-03-18T02:03:57.440Z,95068.00
2024-03-18T02:04:57.495Z,95065.00
2024-03-18T02:05:57.605Z,95066.00
2024-03-18T02:06:57.659Z,95066.00
2024-03-18T02:07:57.722Z,95065.00
2024-03-18T02:08:57.772Z,95067.00
2024-03-18T02:09:57.867Z,95066.00
2024-03-18T02:10:57.945Z,95066.00
2024-03-18T02:11:58.004Z,95066.00
2024-03-18T02:12:58.119Z,95064.00
2024-03-18T02:13:58.141Z,95063.00
2024-03-18T02:14:58.223Z,95064.00
2024-03-18T02:15:58.287Z,95060.00
2024-03-18T02:16:58.338Z,95060.00
2024-03-18T02:17:58.397Z,95054.00
2024-03-18T02:18:58.476Z,95053.00
2024-03-18T02:19:58.566Z,95050.00
2024-03-18T02:20:58.580Z,95048.00
2024-03-18T02:21:58.693Z,95049.00
2024-03-18T02:22:58.741Z,95046.00
2024-03-18T02:23:58.818Z,95048.00
2024-03-18T02:24:58.863Z,95046.00
2024-03-18T02:25:58.921Z,95049.00
2024-03-18T02:26:58.987Z,95049.00
2024-03-18T02:27:59.054Z,95046.00
2024-03-18T02:28:59.139Z,95045.00
2024-03-18T02:29:59.241Z,95043.00
2024-03-18T02:30:59.289Z,95042.00
2024-03-18T02:31:59.359Z,95040.00
2024-03-18T02:32:59.433Z,95040.00
2024-03-18T02:33:59.465Z,95041.00
2024-03-18T02:34:59.581Z,95038.00
2024-03-18T02:35:59.658Z,95036.00
2024-03-18T02:36:59.714Z,95036.00
2024-03-18T02:37:59.758Z,95035.00
2024-03-18T02:38:59.823Z,95034.00
2024-03-18T02:39:59.919Z,95033.00
2024-03-18T02:41:00.008Z,95030.00
2024-03-18T02:42:00.030Z,95030.00
2024-03-18T02:43:00.112Z,95031.00
2024-03-18T02:44:00.179Z,95028.00
2024-03-18T02:45:00.261Z,95029.00
2024-03-18T02:46:00.342Z,95027.00
2024-03-18T02:47:00.453Z,95025.00
2024-03-18T02:48:00.551Z,95025.00
2024-03-18T02:49:00.613Z,95023.00
2024-03-18T02:50:00.674Z,95019.00
2024-03-18T02:51:00.731Z,95018.00
2024-03-18T02:52:00.790Z,95017.00
2024-03-18T02:53:00.846Z,95017.00
2024-03-18T02:54:00.950Z,95015.00
2024-03-18T02:55:01.012Z,95012.00
2024-03-18T02:56:01.087Z,95012.00
2024-03-18T02:57:01.191Z,95013.00
2024-03-18T02:58:01.244Z,95015.00
2024-03-18T02:59:01.306Z,95012.00
2024-03-18T03:00:01.385Z,95015.00
2024-03-18T03:01:01.465Z,95013.00
2024-03-18T03:02:01.603Z,95014.00
2024-03-18T03:03:01.583Z,95015.00
2024-03-18T03:04:01.667Z,95011.00
2024-03-18T03:05:01.714Z,95010.00
2024-03-18T03:06:01.779Z,95010.00
2024-03-18T03:07:01.862Z,95010.00
2024-03-18T03:08:01.915Z,95008.00
2024-03-18T03:09:01.989Z,95009.00
2024-03-18T03:10:02.155Z,95008.00
2024-03-18T03:11:02.132Z,95004.00
2024-03-18T03:12:02.201Z,95004.00
2024-03-18T03:13:02.271Z,95003.00
2024-03-18T03:14:02.329Z,95002.00
2024-03-18T03:15:02.443Z,95003.00
2024-03-18T03:16:02.519Z,95004.00
2024-03-18T03:17:02.552Z,95003.00
2024-03-18T03:18:03.347Z,95001.00
2024-03-18T03:19:02.683Z,95001.00
2024-03-18T03:20:02.763Z,95000.00
2024-03-18T03:21:02.829Z,95000.00
2024-03-18T03:22:02.898Z,95000.00
2024-03-18T03:23:03.004Z,94999.00
2024-03-18T03:24:03.053Z,95000.00
2024-03-18T03:25:03.133Z,94999.00
2024-03-18T03:26:03.234Z,94997.00
2024-03-18T03:27:03.277Z,94997.00
2024-03-18T03:28:03.361Z,94997.00
2024-03-18T03:29:03.466Z,94997.00
2024-03-18T03:30:05.060Z,94995.00
2024-03-18T03:31:03.512Z,94995.00
2024-03-18T03:32:03.568Z,94994.00
2024-03-18T03:33:03.595Z,94994.00
2024-03-18T03:34:03.594Z,94991.00
2024-03-18T03:35:03.673Z,94991.00
2024-03-18T03:36:03.669Z,94989.00
2024-03-18T03:37:03.716Z,94988.00
2024-03-18T03:38:03.744Z,94990.00
2024-03-18T03:39:03.792Z,94991.00
2024-03-18T03:40:03.900Z,94990.00
2024-03-18T03:41:03.933Z,94990.00
2024-03-18T03:42:03.991Z,94990.00
2024-03-18T03:43:04.126Z,94989.00
2024-03-18T03:44:04.150Z,94989.00
2024-03-18T03:45:04.238Z,94989.00
2024-03-18T03:46:04.338Z,94990.00
2024-03-18T03:47:05.864Z,94990.00
2024-03-18T03:48:04.667Z,94991.00
2024-03-18T03:49:04.623Z,94988.00
2024-03-18T03:50:04.683Z,94989.00
2024-03-18T03:51:04.706Z,94990.00
2024-03-18T03:52:04.726Z,94989.00
2024-03-18T03:53:04.739Z,94988.00
2024-03-18T03:54:04.742Z,94992.00
2024-03-18T03:55:04.804Z,94991.00
2024-03-18T03:56:04.815Z,94991.00
2024-03-18T03:57:04.835Z,94992.00
2024-03-18T03:58:05.452Z,94993.00
2024-03-18T03:59:04.881Z,94990.00
2024-03-18T04:00:06.625Z,94990.00
2024-03-18T04:01:04.933Z,94989.00
2024-03-18T04:02:04.965Z,94989.00
2024-03-18T04:03:05.005Z,94986.00
2024-03-18T04:04:05.012Z,94985.00
2024-03-18T04:05:05.040Z,94983.00
2024-03-18T04:06:05.090Z,94983.00
2024-03-18T04:07:05.090Z,94982.00
2024-03-18T04:08:05.101Z,94983.00
2024-03-18T04:09:05.147Z,94983.00
2024-03-18T04:10:05.279Z,94981.00
2024-03-18T04:11:05.337Z,94979.00
2024-03-18T04:12:05.432Z,94978.00
2024-03-18T04:13:05.505Z,94975.00
2024-03-18T04:14:05.549Z,94975.00
2024-03-18T04:15:05.617Z,94976.00
2024-03-18T04:16:05.729Z,94975.00
2024-03-18T04:17:05.782Z,94979.00
2024-03-18T04:18:05.840Z,94978.00
2024-03-18T04:19:05.924Z,94979.00
2024-03-18T04:20:06.049Z,94982.00
2024-03-18T04:21:06.057Z,94981.00
2024-03-18T04:22:06.117Z,94981.00
2024-03-18T04:23:06.193Z,94982.00
2024-03-18T04:24:06.292Z,94983.00
2024-03-18T04:25:06.350Z,94983.00
2024-03-18T04:26:06.465Z,94980.00
2024-03-18T04:27:06.494Z,94982.00
2024-03-18T04:28:06.604Z,94979.00
2024-03-18T04:29:06.685Z,94978.00
2024-03-18T04:30:07.093Z,94977.00
2024-03-18T04:31:06.846Z,94975.00
2024-03-18T04:32:06.915Z,94976.00
2024-03-18T04:33:07.008Z,94978.00
2024-03-18T04:34:07.116Z,94977.00
2024-03-18T04:35:07.164Z,94975.00
2024-03-18T04:36:07.251Z,94976.00
2024-03-18T04:37:07.292Z,94972.00
2024-03-18T04:38:07.389Z,94972.00
2024-03-18T04:39:07.469Z,94971.00
2024-03-18T04:40:07.507Z,94968.00
2024-03-18T04:41:07.582Z,94969.00
2024-03-18T04:42:07.692Z,94968.00
2024-03-18T04:43:07.724Z,94970.00
2024-03-18T04:44:07.799Z,94969.00
2024-03-18T04:45:07.933Z,94971.00
2024-03-18T04:46:07.967Z,94970.00
2024-03-18T04:47:08.036Z,94972.00
2024-03-18T04:48:08.080Z,94970.00
2024-03-18T04:49:08.154Z,94969.00
2024-03-18T04:50:08.258Z,94970.00
2024-03-18T04:51:08.377Z,94969.00
2024-03-18T04:52:08.369Z,94971.00
2024-03-18T04:53:08.489Z,94971.00
2024-03-18T04:54:08.517Z,94970.00
2024-03-18T04:55:08.605Z,94973.00
2024-03-18T04:56:08.647Z,94973.00
2024-03-18T04:57:08.710Z,94972.00
2024-03-18T04:58:08.767Z,94969.00
2024-03-18T04:59:08.882Z,94967.00
2024-03-18T05:00:08.944Z,94967.00
2024-03-18T05:01:09.027Z,94963.00
2024-03-18T05:02:09.101Z,94965.00
2024-03-18T05:03:09.161Z,94966.00
2024-03-18T05:04:09.222Z,94967.00
2024-03-18T05:05:09.394Z,94967.00
2024-03-18T05:06:09.415Z,94966.00
2024-03-18T05:07:09.508Z,94966.00
2024-03-18T05:08:09.561Z,94964.00
2024-03-18T05:09:09.615Z,94962.00
2024-03-18T05:10:09.771Z,94962.00
2024-03-18T05:11:09.754Z,94961.00
2024-03-18T05:12:09.851Z,94960.00
2024-03-18T05:13:09.954Z,94957.00
2024-03-18T05:14:09.994Z,94958.00
2024-03-18T05:15:10.101Z,94957.00
2024-03-18T05:16:10.179Z,94958.00
2024-03-18T05:17:10.221Z,94956.00
2024-03-18T05:18:10.307Z,94955.00
2024-03-18T05:19:10.350Z,94956.00
2024-03-18T05:20:10.456Z,94956.00
2024-03-18T05:21:10.547Z,94952.00
2024-03-18T05:22:10.591Z,94952.00
2024-03-18T05:23:10.666Z,94950.00
2024-03-18T05:24:10.757Z,94950.00
2024-03-18T05:25:10.866Z,94948.00
2024-03-18T05:26:10.920Z,94947.00
2024-03-18T05:27:11.010Z,94947.00
2024-03-18T05:28:11.066Z,94948.00
2024-03-18T05:29:11.129Z,94949.00
2024-03-18T05:30:11.184Z,94948.00
2024-03-18T05:31:11.306Z,94950.00
2024-03-18T05:32:11.340Z,94950.00
2024-03-18T05:33:11.427Z,94948.00
2024-03-18T05:34:11.485Z,94946.00
2024-03-18T05:35:11.575Z,94944.00
2024-03-18T05:36:11.638Z,94941.00
2024-03-18T05:37:11.699Z,94938.00
2024-03-18T05:38:11.807Z,94935.00
2024-03-18T05:39:11.873Z,94932.00
2024-03-18T05:40:11.978Z,94932.00
2024-03-18T05:41:11.987Z,94930.00
2024-03-18T05:42:12.092Z,94930.00
2024-03-18T05:43:45.789Z,94931.00
2024-03-18T05:44:45.792Z,94930.00
2024-03-18T05:45:45.858Z,94929.00
2024-03-18T05:46:45.870Z,94928.00
2024-03-18T05:47:45.903Z,94926.00
2024-03-18T05:48:45.872Z,94925.00
2024-03-18T05:49:45.931Z,94926.00
2024-03-18T05:50:45.929Z,94924.00
2024-03-18T05:51:45.885Z,94922.00
2024-03-18T05:52:45.885Z,94921.00
2024-03-18T05:53:45.909Z,94925.00
2024-03-18T05:54:45.920Z,94924.00
2024-03-18T05:55:45.897Z,94925.00
2024-03-18T05:56:45.891Z,94925.00
2024-03-18T05:57:45.885Z,94926.00
2024-03-18T05:58:45.892Z,94923.00
2024-03-18T05:59:45.912Z,94924.00
2024-03-18T06:00:45.903Z,94926.00
2024-03-18T06:01:45.877Z,94926.00
2024-03-18T06:02:45.923Z,94924.00
2024-03-18T06:03:45.875Z,94923.00
2024-03-18T06:04:45.924Z,94920.00
2024-03-18T06:05:45.930Z,94917.00
2024-03-18T06:06:46.018Z,94914.00
2024-03-18T06:07:45.949Z,94914.00
2024-03-18T06:08:45.914Z,94916.00
2024-03-18T06:09:45.920Z,94913.00
2024-03-18T06:10:45.981Z,94913.00
2024-03-18T06:11:45.929Z,94913.00
2024-03-18T06:12:45.926Z,94912.00
2024-03-18T06:13:45.918Z,94909.00
2024-03-18T06:14:45.916Z,94912.00
2024-03-18T06:15:45.943Z,94912.00
2024-03-18T06:16:45.936Z,94913.00
2024-03-18T06:17:45.965Z,94914.00
2024-03-18T06:18:45.924Z,94914.00
2024-03-18T06:19:45.924Z,94912.00
2024-03-18T06:20:45.953Z,94910.00
2024-03-18T06:21:45.937Z,94908.00
2024-03-18T06:22:45.940Z,94907.00
2024-03-18T06:23:45.952Z,94906.00
2024-03-18T06:24:46.925Z,94905.00
2024-03-18T06:25:45.964Z,94900.00
2024-03-18T06:26:46.008Z,94903.00
2024-03-18T06:27:46.093Z,94898.00
2024-03-18T06:28:46.156Z,94900.00
2024-03-18T06:29:46.223Z,94895.00
2024-03-18T06:30:46.315Z,94897.00
2024-03-18T06:31:46.350Z,94897.00
2024-03-18T06:32:46.434Z,94899.00
2024-03-18T06:33:46.541Z,94900.00
2024-03-18T06:34:50.036Z,94898.00
2024-03-18T06:35:46.595Z,94899.00
2024-03-18T06:36:46.565Z,94899.00
2024-03-18T06:37:46.622Z,94900.00
2024-03-18T06:38:46.564Z,94895.00
2024-03-18T06:39:46.617Z,94893.00
2024-03-18T06:40:46.574Z,94894.00
2024-03-18T06:41:46.632Z,94895.00
2024-03-18T06:42:46.610Z,94895.00
2024-03-18T06:43:46.613Z,94897.00
2024-03-18T06:44:46.578Z,94894.00
2024-03-18T06:45:46.643Z,94895.00
2024-03-18T06:46:46.561Z,94892.00
2024-03-18T06:47:48.884Z,94891.00
2024-03-18T06:48:46.558Z,94890.00
2024-03-18T06:49:46.649Z,94889.00
2024-03-18T06:50:46.570Z,94886.00
2024-03-18T06:51:46.604Z,94885.00
2024-03-18T06:52:46.613Z,94887.00
2024-03-18T06:53:46.578Z,94886.00
2024-03-18T06:54:46.606Z,94887.00
2024-03-18T06:55:48.748Z,94887.00
2024-03-18T06:56:46.591Z,94885.00
2024-03-18T06:57:46.598Z,94881.00
2024-03-18T06:58:46.640Z,94880.00
2024-03-18T06:59:46.604Z,94877.00
2024-03-18T07:00:46.653Z,94873.00
2024-03-18T07:01:46.739Z,94873.00
2024-03-18T07:02:46.759Z,94874.00
2024-03-18T07:03:46.852Z,94867.00
2024-03-18T07:04:46.898Z,94867.00
2024-03-18T07:05:46.975Z,94868.00
2024-03-18T07:06:47.016Z,94865.00
2024-03-18T07:07:47.007Z,94866.00
2024-03-18T07:08:47.034Z,94864.00
2024-03-18T07:09:47.071Z,94862.00
2024-03-18T07:10:47.142Z,94864.00
2024-03-18T07:11:47.154Z,94860.00
2024-03-18T07:12:47.194Z,94862.00
2024-03-18T07:13:47.195Z,94866.00
2024-03-18T07:14:47.226Z,94864.00
2024-03-18T07:15:47.240Z,94863.00
2024-03-18T07:16:47.324Z,94862.00
2024-03-18T07:17:47.330Z,94863.00
2024-03-18T07:18:47.381Z,94863.00
2024-03-18T07:20:02.852Z,94864.00
2024-03-18T07:20:48.845Z,94863.00
2024-03-18T07:21:47.459Z,94866.00
2024-03-18T07:22:47.462Z,94864.00
2024-03-18T07:23:47.471Z,94862.00
2024-03-18T07:24:47.442Z,94859.00
2024-03-18T07:25:47.479Z,94859.00
2024-03-18T07:26:47.525Z,94860.00
2024-03-18T07:27:47.509Z,94857.00
2024-03-18T07:28:47.485Z,94856.00
2024-03-18T07:29:47.482Z,94856.00
2024-03-18T07:30:47.577Z,94855.00
2024-03-18T07:31:47.623Z,94853.00
2024-03-18T07:32:47.680Z,94853.00
2024-03-18T07:33:47.699Z,94850.00
2024-03-18T07:34:49.567Z,94850.00
2024-03-18T07:35:47.833Z,94850.00
2024-03-18T07:36:47.872Z,94850.00
2024-03-18T07:37:47.818Z,94849.00
2024-03-18T07:38:47.877Z,94850.00
2024-03-18T07:39:47.820Z,94848.00
2024-03-18T07:40:47.815Z,94850.00
2024-03-18T07:41:47.855Z,94847.00
2024-03-18T07:42:47.844Z,94845.00
2024-03-18T07:43:47.894Z,94846.00
2024-03-18T07:44:47.806Z,94846.00
2024-03-18T07:45:47.898Z,94843.00
2024-03-18T07:46:47.862Z,94842.00
2024-03-18T07:47:47.837Z,94845.00
2024-03-18T07:48:47.874Z,94843.00
2024-03-18T07:49:47.844Z,94842.00
2024-03-18T07:50:47.913Z,94842.00
2024-03-18T07:51:47.862Z,94843.00
2024-03-18T07:52:47.907Z,94842.00
2024-03-18T07:53:47.903Z,94842.00
2024-03-18T07:54:47.904Z,94843.00
2024-03-18T07:55:47.918Z,94842.00
2024-03-18T07:56:47.941Z,94841.00
2024-03-18T07:57:48.090Z,94838.00
2024-03-18T07:58:47.916Z,94836.00
2024-03-18T07:59:47.883Z,94836.00
2024-03-18T08:00:47.930Z,94834.00
2024-03-18T08:01:47.929Z,94834.00
2024-03-18T08:02:47.961Z,94833.00
2024-03-18T08:03:47.918Z,94832.00
2024-03-18T08:04:47.942Z,94829.00
2024-03-18T08:05:47.928Z,94831.00
2024-03-18T08:06:47.892Z,94832.00
2024-03-18T08:07:47.903Z,94829.00
2024-03-18T08:08:47.999Z,94829.00
2024-03-18T08:09:48.118Z,94825.00
2024-03-18T08:10:49.684Z,94823.00
2024-03-18T08:11:48.247Z,94819.00
2024-03-18T08:12:48.309Z,94820.00
2024-03-18T08:13:48.303Z,94819.00
2024-03-18T08:14:48.424Z,94816.00
2024-03-18T08:15:48.552Z,94814.00
2024-03-18T08:16:48.643Z,94813.00
2024-03-18T08:17:48.790Z,94815.00
2024-03-18T08:18:48.837Z,94813.00
2024-03-18T08:19:49.007Z,94812.00
2024-03-18T08:20:50.812Z,94809.00
2024-03-18T08:21:49.149Z,94809.00
2024-03-18T08:22:49.203Z,94808.00
2024-03-18T08:23:49.246Z,94806.00
2024-03-18T08:24:49.240Z,94806.00
2024-03-18T08:25:49.316Z,94806.00
2024-03-18T08:26:49.325Z,94807.00
2024-03-18T08:27:49.375Z,94804.00
2024-03-18T08:28:49.424Z,94803.00
2024-03-18T08:29:49.537Z,94803.00
2024-03-18T08:30:49.590Z,94805.00
2024-03-18T08:31:49.695Z,94803.00
2024-03-18T08:33:03.509Z,94803.00
2024-03-18T08:34:04.342Z,94802.00
2024-03-18T08:34:50.851Z,94801.00
2024-03-18T08:35:49.865Z,94800.00
2024-03-18T08:36:49.848Z,94803.00
2024-03-18T08:37:49.903Z,94802.00
2024-03-18T08:38:49.858Z,94798.00
2024-03-18T08:39:50.627Z,94798.00
2024-03-18T08:40:49.867Z,94793.00
2024-03-18T08:41:49.945Z,94793.00
2024-03-18T08:42:49.904Z,94789.00
2024-03-18T08:43:49.923Z,94786.00
2024-03-18T08:44:49.859Z,94786.00
2024-03-18T08:45:49.872Z,94784.00
2024-03-18T08:46:49.847Z,94784.00
2024-03-18T08:47:49.887Z,94782.00
2024-03-18T08:48:49.864Z,94783.00
2024-03-18T08:49:49.873Z,94783.00
2024-03-18T08:50:49.946Z,94778.00
2024-03-18T08:51:49.899Z,94776.00
2024-03-18T08:52:49.859Z,94774.00
2024-03-18T08:53:49.852Z,94773.00
2024-03-18T08:54:49.858Z,94773.00
2024-03-18T08:55:49.893Z,94771.00
2024-03-18T08:56:49.877Z,94771.00
2024-03-18T08:57:49.898Z,94767.00
2024-03-18T08:58:51.674Z,94766.00
2024-03-18T08:59:50.018Z,94764.00
2024-03-18T09:00:50.075Z,94761.00
2024-03-18T09:01:50.069Z,94759.00
2024-03-18T09:02:50.203Z,94757.00
2024-03-18T09:03:50.190Z,94756.00
2024-03-18T09:04:50.198Z,94756.00
2024-03-18T09:05:50.196Z,94754.00
2024-03-18T09:06:50.272Z,94752.00
2024-03-18T09:07:50.314Z,94753.00
2024-03-18T09:08:50.425Z,94752.00
2024-03-18T09:09:50.478Z,94753.00
2024-03-18T09:10:50.645Z,94752.00
2024-03-18T09:11:50.650Z,94751.00
2024-03-18T09:12:50.698Z,94750.00
2024-03-18T09:13:50.753Z,94748.00
2024-03-18T09:14:50.872Z,94750.00
2024-03-18T09:15:50.979Z,94749.00
2024-03-18T09:16:51.005Z,94748.00
2024-03-18T09:17:52.998Z,94748.00
2024-03-18T09:18:51.299Z,94747.00
2024-03-18T09:19:51.359Z,94745.00
2024-03-18T09:20:51.415Z,94747.00
2024-03-18T09:21:51.482Z,94749.00
2024-03-18T09:22:51.530Z,94748.00
2024-03-18T09:23:51.555Z,94748.00
2024-03-18T09:24:52.489Z,94746.00
2024-03-18T09:25:51.624Z,94745.00
2024-03-18T09:26:51.630Z,94748.00
2024-03-18T09:27:51.653Z,94746.00
2024-03-18T09:28:51.814Z,94742.00
2024-03-18T09:29:51.694Z,94744.00
2024-03-18T09:30:51.846Z,94744.00
2024-03-18T09:31:51.941Z,94743.00
2024-03-18T09:32:52.941Z,94742.00
2024-03-18T09:33:52.126Z,94743.00
2024-03-18T09:35:44.953Z,94746.00
2024-03-18T09:36:43.803Z,94746.00
2024-03-18T09:37:43.818Z,94746.00
2024-03-18T09:38:43.757Z,94742.00
2024-03-18T09:39:43.903Z,94743.00
2024-03-18T09:40:43.773Z,94744.00
2024-03-18T09:41:45.547Z,94743.00
2024-03-18T09:42:43.822Z,94742.00
2024-03-18T09:43:43.813Z,94743.00
2024-03-18T09:44:43.802Z,94742.00
2024-03-18T09:45:43.804Z,94738.00
2024-03-18T09:46:43.780Z,94739.00
2024-03-18T09:47:46.385Z,94738.00
2024-03-18T09:48:43.769Z,94735.00
2024-03-18T09:49:43.789Z,94735.00
2024-03-18T09:50:43.895Z,94734.00
2024-03-18T09:51:43.854Z,94732.00
2024-03-18T09:52:43.860Z,94734.00
2024-03-18T09:53:43.812Z,94730.00
2024-03-18T09:54:43.867Z,94731.00
2024-03-18T09:55:43.837Z,94728.00
2024-03-18T09:56:43.827Z,94729.00
2024-03-18T09:57:43.848Z,94730.00
2024-03-18T09:58:43.792Z,94729.00
2024-03-18T09:59:43.813Z,94729.00
2024-03-18T10:00:43.809Z,94730.00
2024-03-18T10:01:43.824Z,94729.00
2024-03-18T10:02:43.866Z,94727.00
2024-03-18T10:03:43.828Z,94727.00
2024-03-18T10:04:43.835Z,94725.00
2024-03-18T10:05:43.837Z,94725.00
2024-03-18T10:06:43.855Z,94726.00
2024-03-18T10:07:43.907Z,94725.00
2024-03-18T10:08:43.914Z,94724.00
2024-03-18T10:09:44.932Z,94721.00
2024-03-18T10:10:44.084Z,94721.00
2024-03-18T10:11:44.088Z,94721.00
2024-03-18T10:12:44.115Z,94718.00
2024-03-18T10:13:44.196Z,94720.00
2024-03-18T10:14:44.213Z,94718.00
2024-03-18T10:15:45.394Z,94717.00
2024-03-18T10:16:44.271Z,94714.00
2024-03-18T10:17:44.287Z,94713.00
2024-03-18T10:18:44.284Z,94714.00
2024-03-18T10:19:44.306Z,94714.00
2024-03-18T10:20:44.303Z,94710.00
2024-03-18T10:21:44.369Z,94709.00
2024-03-18T10:22:44.320Z,94708.00
2024-03-18T10:23:44.327Z,94708.00
2024-03-18T10:24:44.295Z,94708.00
2024-03-18T10:25:44.349Z,94706.00
2024-03-18T10:26:44.365Z,94707.00
2024-03-18T10:27:46.871Z,94706.00
2024-03-18T10:28:44.329Z,94705.00
2024-03-18T10:29:44.329Z,94709.00
2024-03-18T10:30:44.367Z,94708.00
2024-03-18T10:31:44.334Z,94705.00
2024-03-18T10:32:44.339Z,94705.00
2024-03-18T10:33:44.359Z,94706.00
2024-03-18T10:34:44.361Z,94706.00
2024-03-18T10:35:44.350Z,94707.00
2024-03-18T10:36:53.186Z,94709.00
2024-03-18T10:37:45.345Z,94706.00
2024-03-18T10:38:44.435Z,94703.00
2024-03-18T10:39:44.378Z,94701.00
2024-03-18T10:40:44.383Z,94702.00
2024-03-18T10:41:44.423Z,94702.00
2024-03-18T10:42:44.393Z,94703.00
2024-03-18T10:43:46.404Z,94704.00
2024-03-18T10:44:44.454Z,94701.00
2024-03-18T10:45:44.419Z,94703.00
2024-03-18T10:46:44.526Z,94702.00
2024-03-18T10:47:44.586Z,94701.00
2024-03-18T10:48:44.680Z,94701.00
2024-03-18T10:49:46.468Z,94699.00
2024-03-18T10:50:44.658Z,94699.00
2024-03-18T10:51:44.684Z,94698.00
2024-03-18T10:52:44.678Z,94697.00
2024-03-18T10:53:52.972Z,94698.00
2024-03-18T10:54:45.657Z,94696.00
2024-03-18T10:55:44.693Z,94694.00
2024-03-18T10:56:44.695Z,94696.00
2024-03-18T10:57:44.764Z,94699.00
2024-03-18T10:58:44.673Z,94696.00
2024-03-18T10:59:44.720Z,94697.00
2024-03-18T11:00:44.659Z,94695.00
2024-03-18T11:01:44.704Z,94694.00
2024-03-18T11:02:44.693Z,94695.00
2024-03-18T11:03:44.679Z,94693.00
2024-03-18T11:04:44.718Z,94694.00
2024-03-18T11:05:44.855Z,94696.00
2024-03-18T11:06:44.851Z,94696.00
2024-03-18T11:07:44.961Z,94695.00
2024-03-18T11:08:45.005Z,94695.00
2024-03-18T11:09:45.158Z,94695.00
2024-03-18T11:10:45.114Z,94695.00
2024-03-18T11:11:47.159Z,94696.00
2024-03-18T11:12:45.157Z,94697.00
2024-03-18T11:13:45.214Z,94697.00
2024-03-18T11:14:45.228Z,94695.00
2024-03-18T11:15:45.267Z,94694.00
2024-03-18T11:16:45.342Z,94695.00
2024-03-18T11:17:45.309Z,94693.00
2024-03-18T11:18:45.496Z,94693.00
2024-03-18T11:19:45.422Z,94691.00
2024-03-18T11:20:45.539Z,94691.00
2024-03-18T11:21:45.568Z,94691.00
2024-03-18T11:22:45.641Z,94690.00
2024-03-18T11:23:45.658Z,94688.00
2024-03-18T11:24:45.738Z,94689.00
2024-03-18T11:25:45.786Z,94690.00
2024-03-18T11:26:45.904Z,94691.00
2024-03-18T11:27:47.415Z,94689.00
2024-03-18T11:28:46.016Z,94691.00
2024-03-18T11:29:46.021Z,94689.00
2024-03-18T11:30:46.060Z,94687.00
2024-03-18T11:31:46.137Z,94688.00
2024-03-18T11:32:46.213Z,94691.00
2024-03-18T11:33:47.452Z,94689.00
2024-03-18T11:34:46.303Z,94689.00
2024-03-18T11:35:46.364Z,94686.00
2024-03-18T11:36:46.428Z,94690.00
2024-03-18T11:37:46.520Z,94687.00
2024-03-18T11:38:46.670Z,94686.00
2024-03-18T11:39:46.707Z,94682.00
2024-03-18T11:40:46.834Z,94685.00
2024-03-18T11:41:46.979Z,94684.00
2024-03-18T11:42:47.013Z,94684.00
2024-03-18T11:43:47.105Z,94680.00
2024-03-18T11:44:47.287Z,94680.00
2024-03-18T11:45:47.564Z,94679.00
2024-03-18T11:46:47.480Z,94679.00